sensor_id;sensor_type;location;lat;lon;timestamp;pressure;altitude;pressure_sealevel;temperature;humidity
39773;BME280;25451;51.960;6.250;2023-06-04T00:01:58;102061.88;;;15.45;44.99
39773;BME280;25451;51.960;6.250;2023-06-04T00:04:25;102051.91;;;15.37;45.22
39773;BME280;25451;51.960;6.250;2023-06-04T00:06:50;102055.22;;;15.34;45.32
39773;BME280;25451;51.960;6.250;2023-06-04T00:09:16;102016.56;;;15.10;45.59
39773;BME280;25451;51.960;6.250;2023-06-04T00:11:41;102049.19;;;15.26;45.60
39773;BME280;25451;51.960;6.250;2023-06-04T00:14:06;102052.69;;;15.21;45.61
39773;BME280;25451;51.960;6.250;2023-06-04T00:16:32;102046.78;;;15.18;45.93
39773;BME280;25451;51.960;6.250;2023-06-04T00:19:00;102051.28;;;15.19;45.83
39773;BME280;25451;51.960;6.250;2023-06-04T00:21:25;102057.91;;;15.18;46.00
39773;BME280;25451;51.960;6.250;2023-06-04T00:23:51;102039.81;;;15.04;46.15
39773;BME280;25451;51.960;6.250;2023-06-04T00:26:16;102036.75;;;15.05;46.30
39773;BME280;25451;51.960;6.250;2023-06-04T00:28:41;102048.88;;;15.11;46.22
39773;BME280;25451;51.960;6.250;2023-06-04T00:31:06;102041.72;;;15.03;46.20
39773;BME280;25451;51.960;6.250;2023-06-04T00:33:32;102044.50;;;15.03;46.28
39773;BME280;25451;51.960;6.250;2023-06-04T00:35:57;102030.63;;;14.91;46.53
39773;BME280;25451;51.960;6.250;2023-06-04T00:38:23;102032.81;;;14.89;46.70
39773;BME280;25451;51.960;6.250;2023-06-04T00:40:48;102042.72;;;14.85;46.71
39773;BME280;25451;51.960;6.250;2023-06-04T00:43:13;102041.63;;;14.86;46.83
39773;BME280;25451;51.960;6.250;2023-06-04T00:45:39;102051.66;;;14.87;46.82
39773;BME280;25451;51.960;6.250;2023-06-04T00:48:05;102032.59;;;14.79;46.84
39773;BME280;25451;51.960;6.250;2023-06-04T00:50:31;102044.06;;;14.83;47.06
39773;BME280;25451;51.960;6.250;2023-06-04T00:52:58;102039.97;;;14.74;46.98
39773;BME280;25451;51.960;6.250;2023-06-04T00:55:23;102046.34;;;14.74;47.08
39773;BME280;25451;51.960;6.250;2023-06-04T00:57:49;102056.03;;;14.72;47.09
39773;BME280;25451;51.960;6.250;2023-06-04T01:00:15;102036.94;;;14.52;47.18
39773;BME280;25451;51.960;6.250;2023-06-04T01:02:43;102051.78;;;14.58;47.48
39773;BME280;25451;51.960;6.250;2023-06-04T01:05:14;102056.53;;;14.57;47.44
39773;BME280;25451;51.960;6.250;2023-06-04T01:07:42;102046.22;;;14.46;47.63
39773;BME280;25451;51.960;6.250;2023-06-04T01:10:14;102057.09;;;14.48;47.83
39773;BME280;25451;51.960;6.250;2023-06-04T01:12:41;102042.34;;;14.36;47.92
39773;BME280;25451;51.960;6.250;2023-06-04T01:15:07;102044.16;;;14.30;48.07
39773;BME280;25451;51.960;6.250;2023-06-04T01:17:43;102056.81;;;14.26;48.25
39773;BME280;25451;51.960;6.250;2023-06-04T01:25:46;102054.53;;;14.23;48.23
39773;BME280;25451;51.960;6.250;2023-06-04T01:28:15;102046.31;;;14.17;48.27
39773;BME280;25451;51.960;6.250;2023-06-04T01:30:44;102049.06;;;14.17;48.16
39773;BME280;25451;51.960;6.250;2023-06-04T01:33:16;102043.97;;;14.13;48.34
39773;BME280;25451;51.960;6.250;2023-06-04T01:35:42;102028.63;;;13.99;48.10
39773;BME280;25451;51.960;6.250;2023-06-04T01:38:07;102055.94;;;14.14;48.20
39773;BME280;25451;51.960;6.250;2023-06-04T01:40:33;102050.84;;;14.11;48.29
39773;BME280;25451;51.960;6.250;2023-06-04T01:42:58;102050.63;;;14.12;48.44
39773;BME280;25451;51.960;6.250;2023-06-04T01:45:25;102040.69;;;14.05;48.48
39773;BME280;25451;51.960;6.250;2023-06-04T01:47:51;102051.09;;;14.09;48.45
39773;BME280;25451;51.960;6.250;2023-06-04T01:50:16;102049.63;;;14.07;48.33
39773;BME280;25451;51.960;6.250;2023-06-04T01:52:42;102042.41;;;14.06;48.51
39773;BME280;25451;51.960;6.250;2023-06-04T01:55:09;102035.03;;;14.00;48.69
39773;BME280;25451;51.960;6.250;2023-06-04T01:57:37;102048.66;;;14.01;48.30
39773;BME280;25451;51.960;6.250;2023-06-04T02:00:04;102030.78;;;13.97;48.27
39773;BME280;25451;51.960;6.250;2023-06-04T02:02:32;102041.19;;;14.02;48.33
39773;BME280;25451;51.960;6.250;2023-06-04T02:04:57;101998.88;;;13.77;48.48
39773;BME280;25451;51.960;6.250;2023-06-04T02:07:23;102045.66;;;14.03;48.52
39773;BME280;25451;51.960;6.250;2023-06-04T02:09:48;102046.50;;;14.03;48.24
39773;BME280;25451;51.960;6.250;2023-06-04T02:12:14;102029.34;;;13.95;48.30
39773;BME280;25451;51.960;6.250;2023-06-04T02:14:40;102043.97;;;14.02;48.33
39773;BME280;25451;51.960;6.250;2023-06-04T02:17:07;102051.94;;;13.98;48.26
39773;BME280;25451;51.960;6.250;2023-06-04T02:19:41;102046.47;;;13.92;48.24
39773;BME280;25451;51.960;6.250;2023-06-04T02:22:13;102053.25;;;13.96;48.37
39773;BME280;25451;51.960;6.250;2023-06-04T02:24:38;102047.09;;;13.94;48.40
39773;BME280;25451;51.960;6.250;2023-06-04T02:27:05;102034.16;;;13.88;48.49
39773;BME280;25451;51.960;6.250;2023-06-04T02:29:31;102039.22;;;13.91;48.61
39773;BME280;25451;51.960;6.250;2023-06-04T02:31:56;102038.50;;;13.84;48.32
39773;BME280;25451;51.960;6.250;2023-06-04T02:34:22;102042.94;;;13.85;48.50
39773;BME280;25451;51.960;6.250;2023-06-04T02:36:48;102037.72;;;13.77;48.44
39773;BME280;25451;51.960;6.250;2023-06-04T02:39:16;102021.66;;;13.67;48.35
39773;BME280;25451;51.960;6.250;2023-06-04T02:41:41;102038.69;;;13.71;48.68
39773;BME280;25451;51.960;6.250;2023-06-04T02:44:07;102051.59;;;13.77;48.86
39773;BME280;25451;51.960;6.250;2023-06-04T02:46:32;102049.78;;;13.71;48.55
39773;BME280;25451;51.960;6.250;2023-06-04T02:48:57;102059.81;;;13.72;48.75
39773;BME280;25451;51.960;6.250;2023-06-04T02:51:23;102041.78;;;13.63;48.84
39773;BME280;25451;51.960;6.250;2023-06-04T02:53:48;102049.41;;;13.67;48.64
39773;BME280;25451;51.960;6.250;2023-06-04T02:56:13;102040.81;;;13.57;48.52
39773;BME280;25451;51.960;6.250;2023-06-04T02:58:51;102040.56;;;13.59;48.77
39773;BME280;25451;51.960;6.250;2023-06-04T03:01:24;102027.50;;;13.48;49.00
39773;BME280;25451;51.960;6.250;2023-06-04T03:03:51;102034.66;;;13.55;48.69
39773;BME280;25451;51.960;6.250;2023-06-04T03:06:18;102030.28;;;13.48;48.82
39773;BME280;25451;51.960;6.250;2023-06-04T03:08:49;102032.56;;;13.51;48.67
39773;BME280;25451;51.960;6.250;2023-06-04T03:11:15;102051.28;;;13.55;48.86
39773;BME280;25451;51.960;6.250;2023-06-04T03:13:40;102035.66;;;13.43;48.46
39773;BME280;25451;51.960;6.250;2023-06-04T03:16:06;102056.06;;;13.48;49.04
39773;BME280;25451;51.960;6.250;2023-06-04T03:18:40;102052.69;;;13.46;48.93
39773;BME280;25451;51.960;6.250;2023-06-04T03:21:07;102050.41;;;13.43;48.99
39773;BME280;25451;51.960;6.250;2023-06-04T03:23:33;102058.97;;;13.42;49.06
39773;BME280;25451;51.960;6.250;2023-06-04T03:26:01;102057.50;;;13.39;49.04
39773;BME280;25451;51.960;6.250;2023-06-04T03:28:26;102049.88;;;13.35;48.86
39773;BME280;25451;51.960;6.250;2023-06-04T03:30:51;102055.16;;;13.36;48.90
39773;BME280;25451;51.960;6.250;2023-06-04T03:33:17;102052.88;;;13.33;48.96
39773;BME280;25451;51.960;6.250;2023-06-04T03:35:42;102052.03;;;13.32;48.87
39773;BME280;25451;51.960;6.250;2023-06-04T03:38:07;102044.63;;;13.26;49.16
39773;BME280;25451;51.960;6.250;2023-06-04T03:40:33;102040.16;;;13.25;48.94
39773;BME280;25451;51.960;6.250;2023-06-04T03:42:58;102046.72;;;13.31;49.09
39773;BME280;25451;51.960;6.250;2023-06-04T03:45:25;102049.94;;;13.28;49.21
39773;BME280;25451;51.960;6.250;2023-06-04T03:47:50;102051.66;;;13.29;48.96
39773;BME280;25451;51.960;6.250;2023-06-04T03:50:20;102050.78;;;13.28;49.22
39773;BME280;25451;51.960;6.250;2023-06-04T03:52:45;102034.09;;;13.17;49.32
39773;BME280;25451;51.960;6.250;2023-06-04T03:55:10;102056.78;;;13.25;49.28
39773;BME280;25451;51.960;6.250;2023-06-04T03:57:38;102044.34;;;13.16;49.10
39773;BME280;25451;51.960;6.250;2023-06-04T04:00:06;102036.47;;;13.13;49.22
39773;BME280;25451;51.960;6.250;2023-06-04T04:02:32;102043.72;;;13.14;49.22
39773;BME280;25451;51.960;6.250;2023-06-04T04:04:57;102048.78;;;13.17;49.25
39773;BME280;25451;51.960;6.250;2023-06-04T04:07:23;102052.16;;;13.19;49.51
39773;BME280;25451;51.960;6.250;2023-06-04T04:09:49;102065.22;;;13.19;49.31
39773;BME280;25451;51.960;6.250;2023-06-04T04:12:15;102052.50;;;13.11;49.53
39773;BME280;25451;51.960;6.250;2023-06-04T04:14:40;102073.28;;;13.20;49.64
39773;BME280;25451;51.960;6.250;2023-06-04T04:17:05;102066.03;;;13.19;49.62
39773;BME280;25451;51.960;6.250;2023-06-04T04:19:31;102072.19;;;13.21;49.69
39773;BME280;25451;51.960;6.250;2023-06-04T04:21:56;102071.38;;;13.21;49.37
39773;BME280;25451;51.960;6.250;2023-06-04T04:24:26;102069.66;;;13.20;49.74
39773;BME280;25451;51.960;6.250;2023-06-04T04:26:52;102072.19;;;13.21;49.50
39773;BME280;25451;51.960;6.250;2023-06-04T04:29:19;102050.13;;;13.15;49.63
39773;BME280;25451;51.960;6.250;2023-06-04T04:31:48;102070.91;;;13.24;49.83
39773;BME280;25451;51.960;6.250;2023-06-04T04:34:14;102078.53;;;13.28;49.74
39773;BME280;25451;51.960;6.250;2023-06-04T04:36:40;102075.50;;;13.30;49.72
39773;BME280;25451;51.960;6.250;2023-06-04T04:39:05;102068.66;;;13.32;49.98
39773;BME280;25451;51.960;6.250;2023-06-04T04:41:31;102071.19;;;13.34;49.80
39773;BME280;25451;51.960;6.250;2023-06-04T04:44:03;102074.97;;;13.40;49.92
39773;BME280;25451;51.960;6.250;2023-06-04T04:46:29;102069.44;;;13.40;49.87
39773;BME280;25451;51.960;6.250;2023-06-04T04:48:54;102051.56;;;13.36;50.02
39773;BME280;25451;51.960;6.250;2023-06-04T04:51:19;102073.72;;;13.54;50.02
39773;BME280;25451;51.960;6.250;2023-06-04T04:53:45;102069.84;;;13.55;50.40
39773;BME280;25451;51.960;6.250;2023-06-04T04:56:10;102068.84;;;13.67;50.01
39773;BME280;25451;51.960;6.250;2023-06-04T04:58:35;102051.56;;;13.65;50.03
39773;BME280;25451;51.960;6.250;2023-06-04T05:01:01;102059.09;;;13.76;50.20
39773;BME280;25451;51.960;6.250;2023-06-04T05:03:26;102064.44;;;13.89;49.94
39773;BME280;25451;51.960;6.250;2023-06-04T05:05:51;102054.81;;;13.92;50.14
39773;BME280;25451;51.960;6.250;2023-06-04T05:08:16;102051.09;;;13.98;49.83
39773;BME280;25451;51.960;6.250;2023-06-04T05:10:42;102056.03;;;14.07;49.65
39773;BME280;25451;51.960;6.250;2023-06-04T05:13:07;102072.81;;;14.31;49.91
39773;BME280;25451;51.960;6.250;2023-06-04T05:15:32;102069.41;;;14.40;49.62
39773;BME280;25451;51.960;6.250;2023-06-04T05:17:58;102065.22;;;14.49;49.70
39773;BME280;25451;51.960;6.250;2023-06-04T05:20:25;102055.66;;;14.57;49.49
39773;BME280;25451;51.960;6.250;2023-06-04T05:22:51;102064.47;;;14.77;49.44
39773;BME280;25451;51.960;6.250;2023-06-04T05:25:16;102072.59;;;14.90;49.47
39773;BME280;25451;51.960;6.250;2023-06-04T05:27:42;102054.94;;;14.96;49.22
39773;BME280;25451;51.960;6.250;2023-06-04T05:30:08;102061.56;;;15.07;49.36
39773;BME280;25451;51.960;6.250;2023-06-04T05:32:34;102062.41;;;15.19;49.34
39773;BME280;25451;51.960;6.250;2023-06-04T05:35:01;102048.91;;;15.27;49.43
39773;BME280;25451;51.960;6.250;2023-06-04T05:37:29;102046.13;;;15.39;49.29
39773;BME280;25451;51.960;6.250;2023-06-04T05:39:57;102055.91;;;15.53;49.24
39773;BME280;25451;51.960;6.250;2023-06-04T05:42:23;102063.53;;;15.57;49.25
39773;BME280;25451;51.960;6.250;2023-06-04T05:44:48;102036.69;;;15.51;49.26
39773;BME280;25451;51.960;6.250;2023-06-04T05:47:15;102040.59;;;15.67;49.24
39773;BME280;25451;51.960;6.250;2023-06-04T05:49:41;102058.53;;;15.88;49.21
39773;BME280;25451;51.960;6.250;2023-06-04T05:52:07;102057.97;;;16.02;49.07
39773;BME280;25451;51.960;6.250;2023-06-04T05:54:32;102050.56;;;16.08;48.90
39773;BME280;25451;51.960;6.250;2023-06-04T05:56:58;102037.22;;;16.10;48.88
39773;BME280;25451;51.960;6.250;2023-06-04T05:59:23;102065.69;;;16.28;49.04
39773;BME280;25451;51.960;6.250;2023-06-04T06:01:49;102061.78;;;16.29;48.92
39773;BME280;25451;51.960;6.250;2023-06-04T06:04:15;102048.88;;;16.23;49.10
39773;BME280;25451;51.960;6.250;2023-06-04T06:06:41;102041.09;;;16.25;49.13
39773;BME280;25451;51.960;6.250;2023-06-04T06:09:09;102048.44;;;16.31;49.18
39773;BME280;25451;51.960;6.250;2023-06-04T06:11:35;102054.72;;;16.38;49.07
39773;BME280;25451;51.960;6.250;2023-06-04T06:14:00;102066.78;;;16.44;49.18
39773;BME280;25451;51.960;6.250;2023-06-04T06:16:27;102069.31;;;16.45;49.22
39773;BME280;25451;51.960;6.250;2023-06-04T06:18:53;102060.78;;;16.35;49.32
39773;BME280;25451;51.960;6.250;2023-06-04T06:21:19;102070.31;;;16.39;49.29
39773;BME280;25451;51.960;6.250;2023-06-04T06:23:44;102067.22;;;16.36;49.44
39773;BME280;25451;51.960;6.250;2023-06-04T06:26:09;102056.22;;;16.29;49.57
39773;BME280;25451;51.960;6.250;2023-06-04T06:28:35;102061.97;;;16.39;49.34
39773;BME280;25451;51.960;6.250;2023-06-04T06:31:01;102066.38;;;16.52;49.09
39773;BME280;25451;51.960;6.250;2023-06-04T06:33:27;102084.78;;;16.70;48.97
39773;BME280;25451;51.960;6.250;2023-06-04T06:35:52;102089.44;;;16.81;48.93
39773;BME280;25451;51.960;6.250;2023-06-04T06:38:17;102081.81;;;16.93;48.68
39773;BME280;25451;51.960;6.250;2023-06-04T06:40:43;102088.38;;;17.03;48.50
39773;BME280;25451;51.960;6.250;2023-06-04T06:43:08;102084.88;;;17.13;48.02
39773;BME280;25451;51.960;6.250;2023-06-04T06:45:35;102082.41;;;17.16;48.38
39773;BME280;25451;51.960;6.250;2023-06-04T06:48:00;102093.53;;;17.33;48.18
39773;BME280;25451;51.960;6.250;2023-06-04T06:50:25;102088.88;;;17.38;48.13
39773;BME280;25451;51.960;6.250;2023-06-04T06:52:51;102096.47;;;17.43;48.15
39773;BME280;25451;51.960;6.250;2023-06-04T06:55:16;102097.16;;;17.50;48.02
39773;BME280;25451;51.960;6.250;2023-06-04T06:57:41;102099.81;;;17.62;47.88
39773;BME280;25451;51.960;6.250;2023-06-04T07:00:07;102094.63;;;17.70;47.78
39773;BME280;25451;51.960;6.250;2023-06-04T07:02:33;102102.91;;;17.87;47.56
39773;BME280;25451;51.960;6.250;2023-06-04T07:04:58;102095.53;;;18.02;47.56
39773;BME280;25451;51.960;6.250;2023-06-04T07:07:24;102099.38;;;18.23;47.35
39773;BME280;25451;51.960;6.250;2023-06-04T07:09:49;102095.31;;;18.36;47.19
39773;BME280;25451;51.960;6.250;2023-06-04T07:12:15;102101.97;;;18.56;46.68
39773;BME280;25451;51.960;6.250;2023-06-04T07:14:40;102095.03;;;18.64;46.50
39773;BME280;25451;51.960;6.250;2023-06-04T07:17:06;102095.41;;;18.77;46.30
39773;BME280;25451;51.960;6.250;2023-06-04T07:19:31;102110.94;;;18.95;46.57
39773;BME280;25451;51.960;6.250;2023-06-04T07:21:56;102106.56;;;19.09;46.16
39773;BME280;25451;51.960;6.250;2023-06-04T07:24:22;102110.84;;;19.22;45.82
39773;BME280;25451;51.960;6.250;2023-06-04T07:26:48;102101.38;;;19.33;45.80
39773;BME280;25451;51.960;6.250;2023-06-04T07:29:13;102097.81;;;19.42;45.71
39773;BME280;25451;51.960;6.250;2023-06-04T07:31:39;102121.47;;;19.66;45.48
39773;BME280;25451;51.960;6.250;2023-06-04T07:34:04;102110.88;;;19.78;45.33
39773;BME280;25451;51.960;6.250;2023-06-04T07:36:29;102113.72;;;19.99;45.11
39773;BME280;25451;51.960;6.250;2023-06-04T07:38:56;102116.84;;;20.12;44.86
39773;BME280;25451;51.960;6.250;2023-06-04T07:41:21;102116.63;;;20.29;44.41
39773;BME280;25451;51.960;6.250;2023-06-04T07:43:47;102114.38;;;20.41;44.50
39773;BME280;25451;51.960;6.250;2023-06-04T07:46:13;102124.81;;;20.60;44.30
39773;BME280;25451;51.960;6.250;2023-06-04T07:48:38;102117.75;;;20.73;44.12
39773;BME280;25451;51.960;6.250;2023-06-04T07:51:03;102116.63;;;20.79;44.03
39773;BME280;25451;51.960;6.250;2023-06-04T07:53:29;102124.50;;;20.92;43.90
39773;BME280;25451;51.960;6.250;2023-06-04T07:55:55;102114.38;;;21.01;43.67
39773;BME280;25451;51.960;6.250;2023-06-04T07:58:21;102119.41;;;21.24;43.31
39773;BME280;25451;51.960;6.250;2023-06-04T08:00:47;102126.97;;;21.39;43.14
39773;BME280;25451;51.960;6.250;2023-06-04T08:03:12;102120.75;;;21.52;43.00
39773;BME280;25451;51.960;6.250;2023-06-04T08:05:37;102121.84;;;21.61;42.78
39773;BME280;25451;51.960;6.250;2023-06-04T08:08:03;102113.09;;;21.63;42.79
39773;BME280;25451;51.960;6.250;2023-06-04T08:10:29;102106.31;;;21.74;42.60
39773;BME280;25451;51.960;6.250;2023-06-04T08:12:54;102117.50;;;21.94;42.36
39773;BME280;25451;51.960;6.250;2023-06-04T08:15:19;102124.75;;;22.05;41.97
39773;BME280;25451;51.960;6.250;2023-06-04T08:17:45;102125.88;;;22.09;41.85
39773;BME280;25451;51.960;6.250;2023-06-04T08:20:10;102115.47;;;22.04;41.74
39773;BME280;25451;51.960;6.250;2023-06-04T08:22:36;102121.34;;;22.13;41.63
39773;BME280;25451;51.960;6.250;2023-06-04T08:25:01;102112.84;;;22.18;41.49
39773;BME280;25451;51.960;6.250;2023-06-04T08:27:28;102130.75;;;22.32;41.42
39773;BME280;25451;51.960;6.250;2023-06-04T08:29:54;102127.06;;;22.37;41.15
39773;BME280;25451;51.960;6.250;2023-06-04T08:32:19;102125.59;;;22.44;40.80
39773;BME280;25451;51.960;6.250;2023-06-04T08:34:44;102108.44;;;22.46;40.86
39773;BME280;25451;51.960;6.250;2023-06-04T08:37:10;102117.34;;;22.63;40.63
39773;BME280;25451;51.960;6.250;2023-06-04T08:39:35;102115.84;;;22.70;40.14
39773;BME280;25451;51.960;6.250;2023-06-04T08:42:04;102139.06;;;22.91;39.97
39773;BME280;25451;51.960;6.250;2023-06-04T08:44:33;102122.59;;;23.03;39.87
39773;BME280;25451;51.960;6.250;2023-06-04T08:47:03;102131.75;;;23.19;39.75
39773;BME280;25451;51.960;6.250;2023-06-04T08:49:34;102140.09;;;23.29;39.49
39773;BME280;25451;51.960;6.250;2023-06-04T08:52:02;102129.31;;;23.36;39.24
39773;BME280;25451;51.960;6.250;2023-06-04T08:54:29;102124.13;;;23.48;38.98
39773;BME280;25451;51.960;6.250;2023-06-04T08:56:56;102130.47;;;23.58;38.82
39773;BME280;25451;51.960;6.250;2023-06-04T08:59:23;102144.72;;;23.72;38.54
39773;BME280;25451;51.960;6.250;2023-06-04T09:01:52;102137.88;;;23.78;38.20
39773;BME280;25451;51.960;6.250;2023-06-04T09:04:18;102132.81;;;23.75;38.01
39773;BME280;25451;51.960;6.250;2023-06-04T09:06:44;102127.41;;;23.78;38.05
39773;BME280;25451;51.960;6.250;2023-06-04T09:09:10;102138.31;;;23.85;37.62
39773;BME280;25451;51.960;6.250;2023-06-04T09:12:03;102133.75;;;23.89;37.41
39773;BME280;25451;51.960;6.250;2023-06-04T09:14:29;102128.97;;;23.89;37.59
39773;BME280;25451;51.960;6.250;2023-06-04T09:16:56;102134.84;;;23.93;37.11
39773;BME280;25451;51.960;6.250;2023-06-04T09:19:23;102130.69;;;24.09;37.27
39773;BME280;25451;51.960;6.250;2023-06-04T09:21:56;102131.47;;;24.15;36.78
39773;BME280;25451;51.960;6.250;2023-06-04T09:24:25;102119.41;;;24.09;36.55
39773;BME280;25451;51.960;6.250;2023-06-04T09:26:51;102140.16;;;24.18;36.63
39773;BME280;25451;51.960;6.250;2023-06-04T09:29:17;102137.78;;;24.25;36.30
39773;BME280;25451;51.960;6.250;2023-06-04T09:31:57;102125.06;;;24.28;36.15
39773;BME280;25451;51.960;6.250;2023-06-04T09:34:29;102138.63;;;24.44;35.79
39773;BME280;25451;51.960;6.250;2023-06-04T09:36:56;102139.75;;;24.43;35.52
39773;BME280;25451;51.960;6.250;2023-06-04T09:39:22;102133.91;;;24.40;34.88
39773;BME280;25451;51.960;6.250;2023-06-04T09:42:01;102103.91;;;24.25;34.99
39773;BME280;25451;51.960;6.250;2023-06-04T09:44:28;102133.84;;;24.45;34.43
39773;BME280;25451;51.960;6.250;2023-06-04T09:46:57;102127.50;;;24.53;34.64
39773;BME280;25451;51.960;6.250;2023-06-04T09:49:23;102137.41;;;24.69;34.09
39773;BME280;25451;51.960;6.250;2023-06-04T09:51:48;102129.69;;;24.75;34.10
39773;BME280;25451;51.960;6.250;2023-06-04T09:54:14;102135.81;;;24.82;33.78
39773;BME280;25451;51.960;6.250;2023-06-04T09:56:41;102131.94;;;24.78;33.45
39773;BME280;25451;51.960;6.250;2023-06-04T09:59:08;102120.78;;;24.67;33.17
39773;BME280;25451;51.960;6.250;2023-06-04T10:01:37;102115.81;;;24.59;32.67
39773;BME280;25451;51.960;6.250;2023-06-04T10:04:06;102135.50;;;24.64;32.59
39773;BME280;25451;51.960;6.250;2023-06-04T10:06:35;102132.84;;;24.54;32.35
39773;BME280;25451;51.960;6.250;2023-06-04T10:09:05;102135.44;;;24.51;32.01
39773;BME280;25451;51.960;6.250;2023-06-04T10:11:34;102130.00;;;24.36;31.83
39773;BME280;25451;51.960;6.250;2023-06-04T10:14:03;102119.78;;;24.21;32.34
39773;BME280;25451;51.960;6.250;2023-06-04T10:16:30;102135.97;;;24.34;32.24
39773;BME280;25451;51.960;6.250;2023-06-04T10:18:56;102118.19;;;24.34;32.06
39773;BME280;25451;51.960;6.250;2023-06-04T10:21:23;102117.44;;;24.28;31.91
39773;BME280;25451;51.960;6.250;2023-06-04T10:23:49;102133.63;;;24.23;31.79
39773;BME280;25451;51.960;6.250;2023-06-04T10:26:15;102106.31;;;23.95;31.75
39773;BME280;25451;51.960;6.250;2023-06-04T10:28:41;102109.97;;;23.95;31.67
39773;BME280;25451;51.960;6.250;2023-06-04T10:31:09;102124.38;;;24.17;31.82
39773;BME280;25451;51.960;6.250;2023-06-04T10:33:34;102119.09;;;24.29;31.73
39773;BME280;25451;51.960;6.250;2023-06-04T10:36:15;102115.53;;;24.42;31.85
39773;BME280;25451;51.960;6.250;2023-06-04T10:38:46;102125.22;;;24.55;31.72
39773;BME280;25451;51.960;6.250;2023-06-04T10:41:16;102123.34;;;24.64;31.84
39773;BME280;25451;51.960;6.250;2023-06-04T10:43:42;102115.81;;;24.59;31.62
39773;BME280;25451;51.960;6.250;2023-06-04T10:46:15;102108.47;;;24.58;31.51
39773;BME280;25451;51.960;6.250;2023-06-04T10:48:50;102126.59;;;24.57;31.28
39773;BME280;25451;51.960;6.250;2023-06-04T10:51:28;102123.28;;;24.50;31.26
39773;BME280;25451;51.960;6.250;2023-06-04T10:53:59;102130.38;;;24.48;31.19
39773;BME280;25451;51.960;6.250;2023-06-04T10:56:29;102128.41;;;24.48;30.85
39773;BME280;25451;51.960;6.250;2023-06-04T10:58:55;102123.28;;;24.50;30.64
39773;BME280;25451;51.960;6.250;2023-06-04T11:01:27;102117.88;;;24.54;30.86
39773;BME280;25451;51.960;6.250;2023-06-04T11:03:57;102120.53;;;24.64;30.92
39773;BME280;25451;51.960;6.250;2023-06-04T11:06:22;102125.75;;;24.76;30.77
39773;BME280;25451;51.960;6.250;2023-06-04T11:09:04;102122.28;;;24.79;30.48
39773;BME280;25451;51.960;6.250;2023-06-04T11:11:31;102117.81;;;24.78;30.27
39773;BME280;25451;51.960;6.250;2023-06-04T11:14:10;102109.38;;;24.73;30.27
39773;BME280;25451;51.960;6.250;2023-06-04T11:16:37;102108.63;;;24.67;30.56
39773;BME280;25451;51.960;6.250;2023-06-04T11:19:02;102102.13;;;24.66;30.66
39773;BME280;25451;51.960;6.250;2023-06-04T11:21:28;102110.28;;;24.68;30.19
39773;BME280;25451;51.960;6.250;2023-06-04T11:24:00;102099.47;;;24.56;30.24
39773;BME280;25451;51.960;6.250;2023-06-04T11:26:33;102108.16;;;24.60;30.21
39773;BME280;25451;51.960;6.250;2023-06-04T11:28:59;102102.53;;;24.60;30.54
39773;BME280;25451;51.960;6.250;2023-06-04T11:31:24;102095.44;;;24.62;30.37
39773;BME280;25451;51.960;6.250;2023-06-04T11:33:50;102093.13;;;24.64;30.69
39773;BME280;25451;51.960;6.250;2023-06-04T11:36:26;102097.66;;;24.65;30.35
39773;BME280;25451;51.960;6.250;2023-06-04T11:41:21;102090.19;;;24.88;30.62
39773;BME280;25451;51.960;6.250;2023-06-04T11:43:50;102079.88;;;24.97;30.23
39773;BME280;25451;51.960;6.250;2023-06-04T11:46:15;102068.91;;;25.09;29.93
39773;BME280;25451;51.960;6.250;2023-06-04T11:48:41;102090.38;;;25.37;29.80
39773;BME280;25451;51.960;6.250;2023-06-04T11:51:07;102089.25;;;25.52;29.82
39773;BME280;25451;51.960;6.250;2023-06-04T11:53:36;102101.94;;;25.68;29.72
39773;BME280;25451;51.960;6.250;2023-06-04T11:56:02;102092.59;;;25.81;29.69
39773;BME280;25451;51.960;6.250;2023-06-04T11:58:28;102080.03;;;25.74;29.53
39773;BME280;25451;51.960;6.250;2023-06-04T12:00:55;102089.16;;;25.71;29.38
39773;BME280;25451;51.960;6.250;2023-06-04T12:03:34;102078.47;;;25.68;29.55
39773;BME280;25451;51.960;6.250;2023-06-04T12:06:15;102099.53;;;25.75;29.52
39773;BME280;25451;51.960;6.250;2023-06-04T12:08:50;102092.19;;;25.74;29.60
39773;BME280;25451;51.960;6.250;2023-06-04T12:11:34;102080.25;;;25.77;29.40
39773;BME280;25451;51.960;6.250;2023-06-04T12:14:06;102071.13;;;25.80;29.43
39773;BME280;25451;51.960;6.250;2023-06-04T12:16:34;102074.25;;;25.79;29.45
39773;BME280;25451;51.960;6.250;2023-06-04T12:19:17;102080.03;;;25.74;29.45
39773;BME280;25451;51.960;6.250;2023-06-04T12:21:42;102071.69;;;25.55;29.58
39773;BME280;25451;51.960;6.250;2023-06-04T12:24:14;102084.47;;;25.53;29.64
39773;BME280;25451;51.960;6.250;2023-06-04T12:26:41;102074.25;;;25.38;29.71
39773;BME280;25451;51.960;6.250;2023-06-04T12:29:24;102071.44;;;25.24;29.55
39773;BME280;25451;51.960;6.250;2023-06-04T12:31:50;102081.78;;;25.15;29.82
39773;BME280;25451;51.960;6.250;2023-06-04T12:34:26;102071.41;;;25.11;29.87
39773;BME280;25451;51.960;6.250;2023-06-04T12:36:51;102062.50;;;25.04;29.76
39773;BME280;25451;51.960;6.250;2023-06-04T12:39:16;102070.34;;;25.07;29.55
39773;BME280;25451;51.960;6.250;2023-06-04T12:41:45;102070.88;;;25.09;29.69
39773;BME280;25451;51.960;6.250;2023-06-04T12:44:11;102077.69;;;25.08;29.58
39773;BME280;25451;51.960;6.250;2023-06-04T12:46:36;102055.38;;;24.93;29.87
39773;BME280;25451;51.960;6.250;2023-06-04T12:49:01;102072.56;;;24.96;29.53
39773;BME280;25451;51.960;6.250;2023-06-04T12:51:26;102065.09;;;24.87;29.38
39773;BME280;25451;51.960;6.250;2023-06-04T12:53:52;102063.31;;;24.91;29.95
39773;BME280;25451;51.960;6.250;2023-06-04T12:56:17;102068.34;;;24.94;29.77
39773;BME280;25451;51.960;6.250;2023-06-04T12:58:43;102059.03;;;24.93;29.82